Time;durP1;ratioP1;P1;durP2;ratioP2;P2;SDS_P1;SDS_P2;PMS_P1;PMS_P2;Temp;Humidity;BMP_temperature;BMP_pressure;BME280_temperature;BME280_humidity;BME280_pressure;Samples;Min_cycle;Max_cycle;Signal;HPM_P1;HPM_P2
2022/11/17 00:00:00;;;;;;;2.20;1.20;;;12.30;99.90;;;;;;4998098;28;20166;-74
2022/11/17 00:02:26;;;;;;;3.30;0.93;;;12.20;99.90;;;;;;4997683;28;20705;-74
2022/11/17 00:04:53;;;;;;;2.30;1.10;;;12.30;99.90;;;;;;4998075;28;20628;-74
2022/11/17 00:07:18;;;;;;;4.70;1.40;;;12.30;99.90;;;;;;4997975;28;20193;-74
2022/11/17 00:09:44;;;;;;;4.70;1.03;;;12.30;99.90;;;;;;4998239;28;20186;-74
2022/11/17 00:14:54;;;;;;;3.75;1.30;;;12.30;99.90;;;;;;4998153;28;20225;-75
2022/11/17 00:17:20;;;;;;;3.30;0.80;;;12.40;99.90;;;;;;4997799;28;20591;-74
2022/11/17 00:22:33;;;;;;;4.60;1.30;;;12.40;99.90;;;;;;4997694;28;20209;-74
2022/11/17 00:24:59;;;;;;;4.83;0.93;;;12.40;99.90;;;;;;4995816;28;20294;-74
2022/11/17 00:27:25;;;;;;;1.40;0.80;;;12.50;99.90;;;;;;4977248;28;20725;-75
2022/11/17 00:29:51;;;;;;;3.83;1.30;;;12.50;99.90;;;;;;4994948;28;20168;-74
2022/11/17 00:35:03;;;;;;;3.45;0.80;;;12.50;99.90;;;;;;4994843;28;20598;-74
2022/11/17 00:37:34;;;;;;;2.50;0.80;;;12.50;99.90;;;;;;4994767;28;20198;-74
2022/11/17 00:40:00;;;;;;;3.58;0.80;;;12.60;99.90;;;;;;4976952;28;20182;-74
2022/11/17 00:42:26;;;;;;;3.80;1.20;;;12.60;99.90;;;;;;5004219;28;20186;-74
2022/11/17 00:44:51;;;;;;;2.00;1.10;;;12.60;99.90;;;;;;4996505;28;20194;-74
2022/11/17 00:47:17;;;;;;;1.97;0.80;;;12.60;99.90;;;;;;5002072;28;20196;-74
2022/11/17 00:49:43;;;;;;;4.10;1.20;;;12.60;99.90;;;;;;4983687;28;20185;-75
2022/11/17 00:52:09;;;;;;;3.93;1.23;;;12.60;99.90;;;;;;5012325;28;20257;-75
2022/11/17 00:54:34;;;;;;;2.30;0.73;;;12.60;99.90;;;;;;5014282;28;20174;-73
2022/11/17 00:57:00;;;;;;;4.50;1.03;;;12.70;99.90;;;;;;4996290;28;21108;-74
2022/11/17 00:59:26;;;;;;;1.88;0.90;;;12.70;99.90;;;;;;5013823;28;20257;-74
2022/11/17 01:01:52;;;;;;;3.47;0.90;;;12.70;99.90;;;;;;5013789;28;20253;-74
2022/11/17 01:04:18;;;;;;;2.83;0.73;;;12.70;99.90;;;;;;5012284;28;20200;-74
2022/11/17 01:06:46;;;;;;;1.73;0.90;;;12.70;99.90;;;;;;4996111;28;21000;-73
2022/11/17 01:09:19;;;;;;;2.40;0.88;;;12.70;99.90;;;;;;5013785;28;20727;-73
2022/11/17 01:11:46;;;;;;;2.72;0.80;;;12.70;99.90;;;;;;5013691;28;20337;-73
2022/11/17 01:14:24;;;;;;;2.17;1.10;;;12.60;99.90;;;;;;5013390;28;20170;-73
2022/11/17 01:16:51;;;;;;;2.20;0.90;;;12.60;99.90;;;;;;5013569;28;20197;-72
2022/11/17 01:19:17;;;;;;;4.80;1.00;;;12.50;99.90;;;;;;5013529;28;20194;-73
2022/11/17 01:21:43;;;;;;;2.92;1.15;;;12.50;99.90;;;;;;5013322;28;20601;-73
2022/11/17 01:24:10;;;;;;;4.65;1.30;;;12.40;99.90;;;;;;5013223;28;20170;-73
2022/11/17 01:26:37;;;;;;;1.80;0.80;;;12.40;99.90;;;;;;5013268;28;20288;-73
2022/11/17 01:29:04;;;;;;;2.40;0.80;;;12.30;99.90;;;;;;5004049;28;20190;-73
2022/11/17 01:31:39;;;;;;;2.70;0.93;;;12.30;99.90;;;;;;4994007;28;20668;-73
2022/11/17 01:34:06;;;;;;;7.15;1.00;;;12.30;99.90;;;;;;4992755;28;20171;-73
2022/11/17 01:39:24;;;;;;;6.45;1.20;;;12.30;99.90;;;;;;5013196;28;20186;-73
2022/11/17 01:41:50;;;;;;;2.33;0.75;;;12.20;99.90;;;;;;5013223;28;20170;-74
2022/11/17 01:44:34;;;;;;;2.10;1.00;;;12.20;99.90;;;;;;5012855;28;20177;-73
2022/11/17 01:47:02;;;;;;;6.15;1.02;;;12.20;99.90;;;;;;4995400;28;20205;-73
2022/11/17 01:49:29;;;;;;;5.22;1.02;;;12.20;99.90;;;;;;5013060;28;20512;-74
2022/11/17 01:52:00;;;;;;;4.15;1.48;;;12.20;99.90;;;;;;5012859;28;20171;-73
2022/11/17 01:54:28;;;;;;;4.15;1.15;;;12.20;99.90;;;;;;5011751;28;20253;-74
2022/11/17 01:57:01;;;;;;;2.42;0.88;;;12.20;99.90;;;;;;5012858;28;20285;-74
2022/11/17 01:59:36;;;;;;;1.85;0.80;;;12.20;99.90;;;;;;4995179;28;20170;-74
2022/11/17 02:02:01;;;;;;;3.55;1.10;;;12.30;99.90;;;;;;4994808;28;20224;-74
2022/11/17 02:04:32;;;;;;;1.80;0.90;;;12.30;99.90;;;;;;5012503;28;20178;-74
2022/11/17 02:07:08;;;;;;;1.85;0.90;;;12.30;99.90;;;;;;4995080;28;20289;-75
2022/11/17 02:09:37;;;;;;;3.08;0.88;;;12.30;99.90;;;;;;5004744;28;20173;-74
2022/11/17 02:12:07;;;;;;;5.43;1.00;;;12.30;99.90;;;;;;4991307;28;20171;-75
2022/11/17 02:14:34;;;;;;;2.83;0.93;;;12.30;99.90;;;;;;4992871;28;20171;-74
2022/11/17 02:17:01;;;;;;;2.58;0.75;;;12.30;99.90;;;;;;4992940;28;20758;-74
2022/11/17 02:19:35;;;;;;;3.08;0.82;;;12.30;99.90;;;;;;4992705;28;20198;-74
2022/11/17 02:22:31;;;;;;;2.30;0.85;;;12.30;99.90;;;;;;4992370;28;20171;-74
2022/11/17 02:25:30;;;;;;;2.90;0.70;;;12.30;99.90;;;;;;4992772;28;20689;-74
2022/11/17 02:28:14;;;;;;;3.65;0.80;;;12.40;99.90;;;;;;4992556;28;20206;-74
2022/11/17 02:30:44;;;;;;;2.20;0.80;;;12.40;99.90;;;;;;4975289;28;20163;-74
2022/11/17 02:33:22;;;;;;;1.77;0.63;;;12.40;99.90;;;;;;5000762;28;20257;-74
2022/11/17 02:35:50;;;;;;;3.13;0.77;;;12.40;99.90;;;;;;5005954;28;20212;-74
2022/11/17 02:38:42;;;;;;;2.47;0.75;;;12.40;99.90;;;;;;5008812;28;20178;-75
2022/11/17 02:41:24;;;;;;;1.95;0.60;;;12.40;99.90;;;;;;5000530;28;20174;-74
2022/11/17 02:44:03;;;;;;;1.48;0.60;;;12.50;99.90;;;;;;5011851;28;20170;-74
2022/11/17 02:46:45;;;;;;;2.15;0.70;;;12.50;99.90;;;;;;5011854;28;20249;-75
2022/11/17 02:49:23;;;;;;;2.95;0.70;;;12.60;99.90;;;;;;5005871;28;20170;-75
2022/11/17 02:51:52;;;;;;;2.22;0.70;;;12.60;99.90;;;;;;4994403;28;20183;-75
2022/11/17 02:54:20;;;;;;;2.20;0.60;;;12.60;99.90;;;;;;4994008;28;20202;-75
2022/11/17 02:56:45;;;;;;;2.58;0.65;;;12.60;99.90;;;;;;5011628;28;20194;-75
2022/11/17 02:59:14;;;;;;;1.30;0.63;;;12.60;99.90;;;;;;4994131;28;20301;-75
2022/11/17 03:02:01;;;;;;;1.48;0.65;;;12.60;99.90;;;;;;4994061;28;20232;-75
2022/11/17 03:04:50;;;;;;;1.92;0.70;;;12.60;99.90;;;;;;5011673;28;20166;-75
2022/11/17 03:08:00;;;;;;;2.13;0.90;;;12.60;99.90;;;;;;4977820;28;20695;-75
2022/11/17 03:10:44;;;;;;;2.05;0.70;;;12.60;99.90;;;;;;5011201;28;20593;-75
2022/11/17 03:13:34;;;;;;;1.30;0.55;;;12.60;99.90;;;;;;5011332;28;20168;-74
2022/11/17 03:16:03;;;;;;;2.35;0.60;;;12.60;99.90;;;;;;5011608;28;20180;-75
2022/11/17 03:18:37;;;;;;;1.38;0.65;;;12.60;99.90;;;;;;5011634;28;20166;-75
2022/11/17 03:21:25;;;;;;;1.70;0.60;;;12.60;99.90;;;;;;5011765;28;20245;-75
2022/11/17 03:24:12;;;;;;;2.05;0.60;;;12.70;99.90;;;;;;5011442;28;20573;-75
2022/11/17 03:26:43;;;;;;;3.08;1.27;;;12.60;99.90;;;;;;5011304;28;20220;-75
2022/11/17 03:29:13;;;;;;;1.80;0.70;;;12.70;99.90;;;;;;5011719;28;20524;-75
2022/11/17 03:31:42;;;;;;;1.43;0.63;;;12.70;99.90;;;;;;5011332;28;20185;-75
2022/11/17 03:34:12;;;;;;;2.13;0.70;;;12.70;99.90;;;;;;5011264;28;20562;-75
2022/11/17 03:36:42;;;;;;;3.15;0.80;;;12.70;99.90;;;;;;5011407;28;20604;-75
2022/11/17 03:39:15;;;;;;;2.22;0.60;;;12.60;99.90;;;;;;5011310;28;20171;-74
2022/11/17 03:41:45;;;;;;;1.55;0.70;;;12.70;99.90;;;;;;5011336;28;20557;-75
2022/11/17 03:44:14;;;;;;;1.88;0.60;;;12.60;99.90;;;;;;5011136;28;20182;-75
2022/11/17 03:46:42;;;;;;;2.38;0.70;;;12.60;99.90;;;;;;5011272;28;20264;-75
2022/11/17 03:49:38;;;;;;;1.20;0.55;;;12.60;99.90;;;;;;5011369;28;20210;-75
2022/11/17 03:52:04;;;;;;;1.63;0.60;;;12.50;99.90;;;;;;5011044;28;20170;-75
2022/11/17 03:54:30;;;;;;;1.70;0.60;;;12.60;99.90;;;;;;4993546;28;20182;-75
2022/11/17 03:57:18;;;;;;;1.95;0.70;;;12.50;99.90;;;;;;4993535;28;20617;-75
2022/11/17 03:59:49;;;;;;;1.30;0.65;;;12.50;99.90;;;;;;4995978;28;20246;-75
2022/11/17 04:02:20;;;;;;;1.67;0.60;;;12.40;99.90;;;;;;4996857;28;20170;-75
2022/11/17 04:05:04;;;;;;;1.50;0.70;;;12.50;99.90;;;;;;5014652;28;20201;-75
2022/11/17 04:07:39;;;;;;;1.40;0.63;;;12.50;99.90;;;;;;5014765;28;20593;-75
2022/11/17 04:10:06;;;;;;;2.33;0.70;;;12.50;99.90;;;;;;5014862;28;20689;-75
2022/11/17 04:18:18;;;;;;;1.75;0.60;;;12.40;99.90;;;;;;4957166;28;20179;-75
2022/11/17 04:20:44;;;;;;;1.58;0.70;;;12.40;99.90;;;;;;4989237;28;20234;-75
2022/11/17 04:23:13;;;;;;;1.52;0.60;;;12.40;99.90;;;;;;5014269;28;20181;-75
2022/11/17 04:28:35;;;;;;;1.98;0.60;;;12.40;99.90;;;;;;5014359;28;20186;-75
2022/11/17 04:31:10;;;;;;;3.25;1.17;;;12.40;99.90;;;;;;5014155;28;20178;-75
2022/11/17 04:33:38;;;;;;;2.15;0.70;;;12.40;99.90;;;;;;5012732;28;20174;-74
2022/11/17 04:36:04;;;;;;;1.85;0.60;;;12.40;99.90;;;;;;5014099;28;20256;-75
2022/11/17 04:38:30;;;;;;;2.58;0.73;;;12.40;99.90;;;;;;4996601;28;20701;-75
2022/11/17 04:43:45;;;;;;;2.80;0.60;;;12.30;99.90;;;;;;5013013;28;20229;-75
2022/11/17 04:46:11;;;;;;;4.20;0.90;;;12.40;99.90;;;;;;5015381;28;20637;-74
2022/11/17 04:48:37;;;;;;;2.83;0.60;;;12.50;99.90;;;;;;5021443;28;20162;-75
2022/11/17 04:51:03;;;;;;;1.90;0.63;;;12.60;99.90;;;;;;5019099;28;20507;-75
2022/11/17 04:53:29;;;;;;;4.50;0.70;;;12.60;99.90;;;;;;5018914;28;20701;-75
2022/11/17 04:56:01;;;;;;;2.00;0.60;;;12.60;99.90;;;;;;5021120;28;20174;-74
2022/11/17 04:58:27;;;;;;;2.00;0.60;;;12.70;99.90;;;;;;5020673;28;20951;-75
2022/11/17 05:00:53;;;;;;;1.30;0.50;;;12.70;99.90;;;;;;5000352;28;20162;-75
2022/11/17 05:03:19;;;;;;;1.80;0.70;;;12.80;99.90;;;;;;5014299;28;20569;-74
2022/11/17 05:05:46;;;;;;;1.37;0.70;;;12.80;99.90;;;;;;5014288;28;20609;-76
2022/11/17 05:08:13;;;;;;;1.73;0.70;;;12.80;99.90;;;;;;5013059;28;20895;-75
2022/11/17 05:13:26;;;;;;;3.60;1.20;;;12.90;99.90;;;;;;5014005;28;20562;-75
2022/11/17 05:18:39;;;;;;;1.60;0.70;;;13.00;99.90;;;;;;5013528;28;20933;-75
2022/11/17 05:21:06;;;;;;;2.00;0.60;;;13.00;99.90;;;;;;5012462;28;20193;-75
2022/11/17 05:26:17;;;;;;;2.23;1.10;;;13.10;99.90;;;;;;5013459;28;20632;-75
2022/11/17 05:28:43;;;;;;;1.90;0.77;;;13.00;99.90;;;;;;5013228;28;20577;-75
2022/11/17 05:31:10;;;;;;;4.15;0.80;;;13.00;99.90;;;;;;5013241;28;20956;-75
2022/11/17 05:33:35;;;;;;;1.30;0.70;;;12.90;99.90;;;;;;4995523;28;20176;-75
2022/11/17 05:36:01;;;;;;;3.00;0.80;;;12.80;99.90;;;;;;4995667;28;20178;-75
2022/11/17 05:38:27;;;;;;;2.37;0.77;;;12.80;99.90;;;;;;5013089;28;21136;-75
2022/11/17 05:40:53;;;;;;;1.40;0.70;;;12.80;99.90;;;;;;5011910;28;20757;-75
2022/11/17 05:43:18;;;;;;;2.90;0.80;;;12.70;99.90;;;;;;4995170;28;20179;-75
2022/11/17 05:45:44;;;;;;;2.77;0.70;;;12.70;99.90;;;;;;5012931;28;20205;-75
2022/11/17 05:48:10;;;;;;;3.03;0.60;;;12.70;99.90;;;;;;4998363;28;20191;-75
2022/11/17 05:50:36;;;;;;;1.30;0.70;;;12.60;99.90;;;;;;4975987;28;20167;-76
2022/11/17 05:53:02;;;;;;;2.13;0.60;;;12.60;99.90;;;;;;4975801;28;20171;-74
2022/11/17 05:55:28;;;;;;;2.60;0.70;;;12.60;99.90;;;;;;4993452;28;20167;-75
2022/11/17 05:57:55;;;;;;;2.00;0.80;;;12.60;99.90;;;;;;4993616;28;20187;-75
2022/11/17 06:00:21;;;;;;;1.80;0.90;;;12.60;99.90;;;;;;4993735;28;20580;-74
2022/11/17 06:02:53;;;;;;;9.43;1.07;;;12.60;99.90;;;;;;4987211;28;20182;-74
2022/11/17 06:05:22;;;;;;;3.42;0.95;;;12.60;99.90;;;;;;5012911;28;20209;-75
2022/11/17 06:07:49;;;;;;;2.25;0.80;;;12.50;99.90;;;;;;4979542;28;20202;-74
2022/11/17 06:10:16;;;;;;;2.08;0.85;;;12.40;99.90;;;;;;5012899;28;20601;-76
2022/11/17 06:12:41;;;;;;;3.38;0.90;;;12.40;99.90;;;;;;4994654;28;20202;-76
2022/11/17 06:15:08;;;;;;;2.30;0.80;;;12.40;99.90;;;;;;5012567;28;20561;-76
2022/11/17 06:17:43;;;;;;;8.02;1.00;;;12.30;99.90;;;;;;5012508;28;20647;-76
2022/11/17 06:20:22;;;;;;;3.15;0.90;;;12.30;99.90;;;;;;5011326;28;20700;-76
2022/11/17 06:22:49;;;;;;;2.80;0.90;;;12.30;99.90;;;;;;4994353;28;20178;-75
2022/11/17 06:25:17;;;;;;;3.38;0.80;;;12.30;99.90;;;;;;4994688;28;20209;-75
2022/11/17 06:27:43;;;;;;;4.60;0.80;;;12.20;99.90;;;;;;5011932;28;20297;-75
2022/11/17 06:30:10;;;;;;;5.25;0.80;;;12.20;99.90;;;;;;5011099;28;20672;-75
2022/11/17 06:32:37;;;;;;;2.50;0.70;;;12.30;99.90;;;;;;4994337;28;20167;-74
2022/11/17 06:35:08;;;;;;;2.05;0.75;;;12.30;99.90;;;;;;5012261;28;20321;-75
2022/11/17 06:37:34;;;;;;;2.28;0.85;;;12.40;99.90;;;;;;4994985;28;20249;-77
2022/11/17 06:40:00;;;;;;;2.00;0.80;;;12.50;99.90;;;;;;5012970;28;20276;-77
2022/11/17 06:45:11;;;;;;;3.60;1.00;;;12.30;99.90;;;;;;5013230;28;20382;-80
2022/11/17 06:47:37;;;;;;;7.00;1.65;;;12.40;99.90;;;;;;5012703;28;20249;-79
2022/11/17 06:50:03;;;;;;;4.37;1.10;;;12.30;99.90;;;;;;5014894;23;20219;-74
2022/11/17 06:52:28;;;;;;;2.78;1.00;;;12.30;99.90;;;;;;4979705;28;20187;-75
2022/11/17 06:54:54;;;;;;;2.33;1.07;;;12.20;99.90;;;;;;4994765;28;20555;-74
2022/11/17 06:57:20;;;;;;;1.97;1.00;;;12.30;99.90;;;;;;4992440;28;20515;-75
2022/11/17 06:59:46;;;;;;;3.60;1.07;;;12.30;99.90;;;;;;4991119;28;20195;-75
2022/11/17 07:02:11;;;;;;;5.53;1.43;;;12.30;99.90;;;;;;4988209;28;20247;-75
2022/11/17 07:04:37;;;;;;;3.83;1.27;;;12.30;99.90;;;;;;4991851;28;20606;-76
2022/11/17 07:07:03;;;;;;;3.60;0.97;;;12.30;99.90;;;;;;4977254;28;20180;-74
2022/11/17 07:09:29;;;;;;;2.67;0.87;;;12.30;99.90;;;;;;4979988;28;20175;-74
2022/11/17 07:11:56;;;;;;;2.20;0.90;;;12.30;99.90;;;;;;4975457;28;20246;-74
2022/11/17 07:14:21;;;;;;;3.78;0.70;;;12.30;99.90;;;;;;4990750;28;20195;-74
2022/11/17 07:16:47;;;;;;;2.07;0.80;;;12.30;99.90;;;;;;5007215;28;20179;-74
2022/11/17 07:19:13;;;;;;;3.53;1.13;;;12.30;99.90;;;;;;4978916;28;20275;-73
2022/11/17 07:21:39;;;;;;;1.57;0.70;;;12.30;99.90;;;;;;4963982;28;20702;-73
2022/11/17 07:24:05;;;;;;;2.53;1.00;;;12.30;99.90;;;;;;4982274;28;20187;-73
2022/11/17 07:26:30;;;;;;;2.30;0.70;;;12.40;99.90;;;;;;4976878;28;20223;-74
2022/11/17 07:28:56;;;;;;;3.10;0.70;;;12.40;99.90;;;;;;4982461;28;20643;-74
2022/11/17 07:31:22;;;;;;;2.30;0.60;;;12.40;99.90;;;;;;4991277;28;20190;-74
2022/11/17 07:33:49;;;;;;;3.20;0.60;;;12.40;99.90;;;;;;4982110;28;20266;-74
2022/11/17 07:36:15;;;;;;;3.30;0.65;;;12.40;99.90;;;;;;4957495;28;20578;-74
2022/11/17 07:38:41;;;;;;;1.30;0.60;;;12.40;99.90;;;;;;4992976;28;20181;-74
2022/11/17 07:41:09;;;;;;;1.93;0.50;;;12.40;99.90;;;;;;4995298;28;20610;-73
2022/11/17 07:43:35;;;;;;;1.07;0.47;;;12.40;99.90;;;;;;4995500;28;20669;-74
2022/11/17 07:46:11;;;;;;;2.40;0.63;;;12.40;99.90;;;;;;4994284;28;20618;-74
2022/11/17 07:48:36;;;;;;;1.40;0.50;;;12.40;99.90;;;;;;4995664;28;20592;-75
2022/11/17 07:51:03;;;;;;;1.40;0.60;;;12.50;99.90;;;;;;4995193;28;20634;-74
2022/11/17 07:53:30;;;;;;;1.50;0.50;;;12.40;99.90;;;;;;4978013;28;20566;-74
2022/11/17 07:55:56;;;;;;;1.80;0.65;;;12.50;99.90;;;;;;4992231;28;20576;-74
2022/11/17 07:58:24;;;;;;;1.40;0.50;;;12.50;99.90;;;;;;4985549;28;20179;-73
2022/11/17 08:00:50;;;;;;;4.22;0.60;;;12.50;99.90;;;;;;4974062;28;20195;-74
2022/11/17 08:03:15;;;;;;;2.20;0.60;;;12.50;99.90;;;;;;4978368;28;20219;-74
2022/11/17 08:05:41;;;;;;;1.20;0.40;;;12.50;99.90;;;;;;4975851;28;21037;-74
2022/11/17 08:08:08;;;;;;;3.10;0.63;;;12.50;99.90;;;;;;4983257;28;20237;-74
2022/11/17 08:10:34;;;;;;;1.85;0.50;;;12.50;99.90;;;;;;4963337;28;20199;-75
2022/11/17 08:13:00;;;;;;;2.73;0.60;;;12.50;99.90;;;;;;4951534;28;20179;-75
2022/11/17 08:15:29;;;;;;;3.13;0.50;;;12.50;99.90;;;;;;4971774;28;20575;-75
2022/11/17 08:17:57;;;;;;;1.95;0.55;;;12.50;99.90;;;;;;4995242;28;20171;-75
2022/11/17 08:20:23;;;;;;;2.00;0.80;;;12.50;99.90;;;;;;4995177;28;20183;-75
2022/11/17 08:22:50;;;;;;;3.03;0.70;;;12.60;99.90;;;;;;4977236;28;20175;-75
2022/11/17 08:25:17;;;;;;;3.15;0.70;;;12.60;99.90;;;;;;4994953;28;20730;-75
2022/11/17 08:27:42;;;;;;;4.87;1.00;;;12.60;99.90;;;;;;4994967;28;20347;-75
2022/11/17 08:30:09;;;;;;;4.23;0.70;;;12.70;99.90;;;;;;4995028;28;20586;-75
2022/11/17 08:32:35;;;;;;;2.33;0.70;;;12.70;99.90;;;;;;4976862;28;20600;-76
2022/11/17 08:35:05;;;;;;;1.88;0.60;;;12.80;99.90;;;;;;4994380;28;20648;-75
2022/11/17 08:37:31;;;;;;;2.75;0.80;;;12.80;99.90;;;;;;4977696;28;20209;-75
2022/11/17 08:39:57;;;;;;;1.80;0.63;;;12.90;99.90;;;;;;4977652;28;20658;-75
2022/11/17 08:42:23;;;;;;;1.73;0.60;;;13.00;99.90;;;;;;4995301;28;20577;-74
2022/11/17 08:44:48;;;;;;;2.33;0.60;;;12.90;99.90;;;;;;4963881;28;20171;-75
2022/11/17 08:47:14;;;;;;;2.87;0.70;;;13.00;99.90;;;;;;4995139;28;20550;-74
2022/11/17 08:49:40;;;;;;;2.63;0.70;;;13.00;99.90;;;;;;4995217;28;20953;-74
2022/11/17 08:52:06;;;;;;;2.50;0.80;;;13.00;99.90;;;;;;5014167;28;20253;-75
2022/11/17 08:54:31;;;;;;;1.60;0.70;;;13.00;99.90;;;;;;5014197;28;20174;-74
2022/11/17 08:56:58;;;;;;;2.07;0.70;;;13.00;99.90;;;;;;5014410;28;20179;-75
2022/11/17 08:59:25;;;;;;;2.60;0.67;;;13.00;99.90;;;;;;5001958;28;20171;-75
2022/11/17 09:01:51;;;;;;;3.03;0.90;;;13.00;99.90;;;;;;4976882;28;20582;-75
2022/11/17 09:04:18;;;;;;;1.50;0.60;;;13.10;99.90;;;;;;4993060;28;20976;-75
2022/11/17 09:06:44;;;;;;;1.73;0.60;;;13.10;99.90;;;;;;4994292;28;20629;-75
2022/11/17 09:09:09;;;;;;;1.60;0.60;;;13.10;99.90;;;;;;4994371;28;20574;-75
2022/11/17 09:11:35;;;;;;;2.00;1.00;;;13.20;99.90;;;;;;4992896;28;20605;-75
2022/11/17 09:14:01;;;;;;;1.30;0.40;;;13.30;99.90;;;;;;4992831;28;20182;-75
2022/11/17 09:16:27;;;;;;;1.40;0.60;;;13.40;99.90;;;;;;4994219;28;20175;-75
2022/11/17 09:18:55;;;;;;;2.60;0.60;;;13.40;99.90;;;;;;4976933;28;20179;-75
2022/11/17 09:21:21;;;;;;;1.97;0.60;;;13.50;99.90;;;;;;4994321;28;20652;-75
2022/11/17 09:23:47;;;;;;;1.80;0.70;;;13.60;99.90;;;;;;4997981;28;20574;-75
2022/11/17 09:26:14;;;;;;;1.70;0.60;;;13.80;99.90;;;;;;4976528;28;20641;-75
2022/11/17 09:28:41;;;;;;;3.20;0.83;;;13.90;99.90;;;;;;4993931;28;20558;-75
2022/11/17 09:31:12;;;;;;;1.70;0.60;;;14.00;99.90;;;;;;4993841;28;20637;-75
2022/11/17 09:33:38;;;;;;;1.83;0.60;;;14.10;99.90;;;;;;4993688;28;20617;-75
2022/11/17 09:36:06;;;;;;;2.97;0.60;;;14.20;99.90;;;;;;4993587;28;20578;-75
2022/11/17 09:38:32;;;;;;;1.70;0.80;;;14.30;99.90;;;;;;4976385;28;20183;-75
2022/11/17 09:40:58;;;;;;;1.57;0.50;;;14.40;99.90;;;;;;4976190;28;20656;-75
2022/11/17 09:43:28;;;;;;;1.77;0.50;;;14.50;99.90;;;;;;4993269;28;21106;-75
2022/11/17 09:46:28;;;;;;;1.40;0.50;;;14.50;99.90;;;;;;4993399;28;20621;-75
2022/11/17 09:49:06;;;;;;;1.97;0.63;;;14.60;99.90;;;;;;4968396;28;20605;-75
2022/11/17 09:51:37;;;;;;;1.50;0.60;;;14.80;99.90;;;;;;4990647;28;20630;-75
2022/11/17 09:54:14;;;;;;;1.90;0.60;;;14.90;99.90;;;;;;4978256;28;20600;-75
2022/11/17 09:56:41;;;;;;;2.23;0.53;;;14.90;99.90;;;;;;4991603;28;20582;-75
2022/11/17 09:59:12;;;;;;;1.47;0.60;;;15.00;99.90;;;;;;4997522;28;21184;-75
2022/11/17 10:01:38;;;;;;;1.40;0.50;;;15.10;99.90;;;;;;4989072;28;20633;-75
2022/11/17 10:04:10;;;;;;;5.93;0.70;;;15.20;99.90;;;;;;4973139;28;21022;-75
2022/11/17 10:06:37;;;;;;;1.43;0.50;;;15.30;99.90;;;;;;4973299;28;20233;-75
2022/11/17 10:09:35;;;;;;;1.80;0.60;;;15.30;99.90;;;;;;4972244;28;20592;-75
2022/11/17 10:12:24;;;;;;;2.10;0.60;;;15.40;99.90;;;;;;4976228;28;20643;-75
2022/11/17 10:14:50;;;;;;;1.80;0.50;;;15.50;99.90;;;;;;4981019;28;20594;-75
2022/11/17 10:17:16;;;;;;;2.40;1.00;;;15.50;99.90;;;;;;4992403;28;20637;-75
2022/11/17 10:19:44;;;;;;;1.80;0.50;;;15.60;99.90;;;;;;4992478;28;21232;-75
2022/11/17 10:22:09;;;;;;;1.50;0.60;;;15.60;99.90;;;;;;4992131;28;20574;-75
2022/11/17 10:24:45;;;;;;;2.33;0.70;;;15.60;99.90;;;;;;5007718;28;20574;-75
2022/11/17 10:27:19;;;;;;;1.50;0.40;;;15.60;99.90;;;;;;4992511;28;20179;-75
2022/11/17 10:30:08;;;;;;;2.10;0.90;;;15.70;99.90;;;;;;4992582;28;20653;-74
2022/11/17 10:32:37;;;;;;;1.47;0.70;;;15.70;99.90;;;;;;4992008;28;20554;-75
2022/11/17 10:35:16;;;;;;;1.50;0.40;;;15.70;99.90;;;;;;4990950;28;20598;-74
2022/11/17 10:37:57;;;;;;;1.30;0.50;;;15.70;99.90;;;;;;4982556;28;20591;-75
2022/11/17 10:40:26;;;;;;;1.87;1.13;;;15.70;99.90;;;;;;4992267;28;20617;-75
2022/11/17 10:43:26;;;;;;;2.70;0.53;;;15.70;99.90;;;;;;4990563;28;20598;-75
2022/11/17 10:45:58;;;;;;;2.70;0.63;;;15.60;99.90;;;;;;4979743;28;21034;-76
2022/11/17 10:48:35;;;;;;;1.37;0.40;;;15.70;99.90;;;;;;4981096;28;20588;-76
2022/11/17 10:51:08;;;;;;;1.90;0.50;;;15.70;99.90;;;;;;4957096;28;20661;-75
2022/11/17 10:53:36;;;;;;;1.30;0.50;;;15.70;99.90;;;;;;4955186;28;21022;-75
2022/11/17 10:56:10;;;;;;;1.30;0.47;;;15.70;99.90;;;;;;4952909;28;20603;-75
2022/11/17 10:59:10;;;;;;;1.20;0.50;;;15.70;99.90;;;;;;4981785;28;20983;-75
2022/11/17 11:01:38;;;;;;;1.50;0.60;;;15.70;99.90;;;;;;4994203;28;20590;-73
2022/11/17 11:04:06;;;;;;;2.23;0.50;;;15.80;99.90;;;;;;4964958;28;20583;-74
2022/11/17 11:06:33;;;;;;;2.03;0.50;;;15.80;99.90;;;;;;4972776;28;20611;-74
2022/11/17 11:09:16;;;;;;;2.40;0.50;;;15.80;99.90;;;;;;4965533;28;20583;-74
2022/11/17 11:11:50;;;;;;;2.50;0.67;;;15.80;99.90;;;;;;4972590;28;20579;-74
2022/11/17 11:14:34;;;;;;;1.37;0.50;;;15.80;99.90;;;;;;4976584;28;21008;-74
2022/11/17 11:17:10;;;;;;;1.90;0.57;;;15.80;99.90;;;;;;4972730;28;20571;-73
2022/11/17 11:19:36;;;;;;;2.70;0.60;;;15.90;99.90;;;;;;4972268;28;20614;-73
2022/11/17 11:22:20;;;;;;;1.50;0.50;;;15.90;99.90;;;;;;4971744;28;20598;-74
2022/11/17 11:25:16;;;;;;;2.50;0.60;;;15.90;99.90;;;;;;4966161;28;20175;-73
2022/11/17 11:28:05;;;;;;;1.70;0.60;;;15.90;99.90;;;;;;4972368;28;20571;-73
2022/11/17 11:30:46;;;;;;;1.40;0.50;;;16.00;99.90;;;;;;4963902;28;20599;-73
2022/11/17 11:33:51;;;;;;;2.20;0.63;;;16.00;99.90;;;;;;4972196;28;20567;-73
2022/11/17 11:36:43;;;;;;;1.33;0.50;;;16.00;99.90;;;;;;4972294;28;20578;-74
2022/11/17 11:39:45;;;;;;;2.93;0.70;;;16.00;99.90;;;;;;4968107;28;20718;-74
2022/11/17 11:42:23;;;;;;;2.10;0.47;;;16.10;99.90;;;;;;4962418;28;20664;-74
2022/11/17 11:45:19;;;;;;;1.53;0.40;;;16.10;99.90;;;;;;4965409;28;20601;-73
2022/11/17 11:48:12;;;;;;;2.60;0.50;;;16.00;99.90;;;;;;4957260;28;20982;-73
2022/11/17 11:50:59;;;;;;;3.10;0.70;;;16.00;99.90;;;;;;4983545;28;20693;-74
2022/11/17 11:53:39;;;;;;;1.53;0.60;;;16.00;99.90;;;;;;4982967;28;20642;-73
2022/11/17 11:56:11;;;;;;;1.47;0.40;;;16.00;99.90;;;;;;4989676;28;20590;-74
2022/11/17 11:58:43;;;;;;;3.40;0.60;;;16.00;99.90;;;;;;4991216;28;20570;-74
2022/11/17 12:01:12;;;;;;;1.50;0.50;;;16.00;99.90;;;;;;4973685;28;20606;-73
2022/11/17 12:03:47;;;;;;;1.60;0.60;;;16.00;99.90;;;;;;4989912;28;20590;-74
2022/11/17 12:06:52;;;;;;;2.77;0.50;;;16.00;99.90;;;;;;4991217;28;20629;-73
2022/11/17 12:09:18;;;;;;;1.77;0.80;;;16.00;99.90;;;;;;4970523;28;20573;-73
2022/11/17 12:12:00;;;;;;;2.87;0.60;;;16.10;99.90;;;;;;4971701;28;20567;-73
2022/11/17 12:14:29;;;;;;;1.80;0.50;;;16.20;99.90;;;;;;4971649;28;20199;-74
2022/11/17 12:17:22;;;;;;;2.43;0.70;;;16.30;99.90;;;;;;4970733;28;20573;-73
2022/11/17 12:19:52;;;;;;;2.33;0.50;;;16.40;99.90;;;;;;4971147;28;20599;-74
2022/11/17 12:22:33;;;;;;;1.97;0.50;;;16.50;99.90;;;;;;5014206;28;20597;-74
2022/11/17 12:25:18;;;;;;;1.20;0.50;;;16.50;99.90;;;;;;5014117;28;20918;-73
2022/11/17 12:27:51;;;;;;;1.33;0.43;;;16.60;99.90;;;;;;4984110;28;20588;-74
2022/11/17 12:30:32;;;;;;;2.70;0.60;;;16.70;99.90;;;;;;4996642;28;20956;-74
2022/11/17 12:33:03;;;;;;;1.77;0.60;;;16.80;99.90;;;;;;5014238;28;20556;-74
2022/11/17 12:35:37;;;;;;;2.23;0.60;;;16.80;99.90;;;;;;4996186;28;20577;-74
2022/11/17 12:38:15;;;;;;;2.13;0.50;;;16.90;99.90;;;;;;4996678;28;21210;-74
2022/11/17 12:40:52;;;;;;;2.07;0.50;;;17.00;99.90;;;;;;5010003;28;20623;-74
2022/11/17 12:43:20;;;;;;;1.63;0.50;;;17.00;99.90;;;;;;4981326;28;20588;-74
2022/11/17 12:45:54;;;;;;;1.47;0.50;;;17.00;99.90;;;;;;4977239;28;21096;-74
2022/11/17 12:48:37;;;;;;;2.97;0.60;;;17.10;99.90;;;;;;4976989;28;20647;-73
2022/11/17 12:51:29;;;;;;;1.60;0.50;;;17.10;99.90;;;;;;4993906;28;20609;-74
2022/11/17 12:54:12;;;;;;;2.00;0.50;;;17.10;99.90;;;;;;4994146;28;21117;-75
2022/11/17 12:57:03;;;;;;;1.53;0.40;;;17.20;99.90;;;;;;4994080;28;20625;-74
2022/11/17 12:59:29;;;;;;;2.23;0.50;;;17.20;99.90;;;;;;4992148;28;20585;-74
2022/11/17 13:02:28;;;;;;;2.37;0.60;;;17.20;99.90;;;;;;4993399;28;20594;-74
2022/11/17 13:05:01;;;;;;;1.70;0.50;;;17.10;99.90;;;;;;4971744;28;20211;-74
2022/11/17 13:07:27;;;;;;;2.00;0.70;;;17.20;99.90;;;;;;4993909;28;20593;-74
2022/11/17 13:09:58;;;;;;;3.50;0.70;;;17.20;99.90;;;;;;4993440;28;20594;-74
2022/11/17 13:12:26;;;;;;;1.80;0.60;;;17.20;99.90;;;;;;4975895;28;20616;-74
2022/11/17 13:15:01;;;;;;;2.90;0.60;;;17.20;99.90;;;;;;4994096;28;20562;-74
2022/11/17 13:17:33;;;;;;;2.70;0.57;;;17.10;99.90;;;;;;4993937;28;20661;-73
2022/11/17 13:20:23;;;;;;;1.53;0.50;;;17.10;99.90;;;;;;4976539;28;20692;-74
2022/11/17 13:23:12;;;;;;;1.70;0.60;;;17.10;99.90;;;;;;4975986;28;20714;-73
2022/11/17 13:25:37;;;;;;;2.17;0.50;;;17.10;99.90;;;;;;4977178;28;20606;-74
2022/11/17 13:28:04;;;;;;;2.60;0.60;;;17.10;99.90;;;;;;4993640;28;20573;-74
2022/11/17 13:30:31;;;;;;;1.97;0.60;;;17.10;99.90;;;;;;4993213;28;20628;-74
2022/11/17 13:33:01;;;;;;;1.90;0.50;;;17.00;99.90;;;;;;4992359;28;20562;-74
2022/11/17 13:35:34;;;;;;;1.60;0.60;;;17.10;99.90;;;;;;4976050;28;20958;-73
2022/11/17 13:38:04;;;;;;;1.70;0.67;;;17.10;99.90;;;;;;4993066;28;20577;-74
2022/11/17 13:40:33;;;;;;;1.67;0.60;;;17.20;99.90;;;;;;4975022;28;20649;-73
2022/11/17 13:43:00;;;;;;;1.60;0.60;;;17.20;99.90;;;;;;4957313;28;20697;-74